sensor_id;sensor_type;location;lat;lon;timestamp;temperature;humidity
45319;DHT22;31057;48.498;32.260;2024-03-02T00:00:41;2.60;99.90
45319;DHT22;31057;48.498;32.260;2024-03-02T00:02:44;2.50;99.90
45319;DHT22;31057;48.498;32.260;2024-03-02T00:04:48;2.50;99.90
45319;DHT22;31057;48.498;32.260;2024-03-02T00:06:53;2.50;99.90
45319;DHT22;31057;48.498;32.260;2024-03-02T00:08:58;2.50;99.90
45319;DHT22;31057;48.498;32.260;2024-03-02T00:11:01;2.50;99.90
45319;DHT22;31057;48.498;32.260;2024-03-02T00:13:04;2.40;99.90
45319;DHT22;31057;48.498;32.260;2024-03-02T00:17:38;2.40;99.90
45319;DHT22;31057;48.498;32.260;2024-03-02T00:19:40;2.50;99.90
45319;DHT22;31057;48.498;32.260;2024-03-02T00:21:42;2.50;99.90
45319;DHT22;31057;48.498;32.260;2024-03-02T00:23:44;2.50;99.90
45319;DHT22;31057;48.498;32.260;2024-03-02T00:25:49;2.50;99.90
45319;DHT22;31057;48.498;32.260;2024-03-02T00:27:51;2.50;99.90
45319;DHT22;31057;48.498;32.260;2024-03-02T00:29:53;2.50;99.90
45319;DHT22;31057;48.498;32.260;2024-03-02T00:31:55;2.50;99.90
45319;DHT22;31057;48.498;32.260;2024-03-02T00:34:02;2.50;99.90
45319;DHT22;31057;48.498;32.260;2024-03-02T00:36:07;2.40;99.90
45319;DHT22;31057;48.498;32.260;2024-03-02T00:38:10;2.40;99.90
45319;DHT22;31057;48.498;32.260;2024-03-02T00:40:12;2.40;99.90
45319;DHT22;31057;48.498;32.260;2024-03-02T00:42:15;2.50;99.90
45319;DHT22;31057;48.498;32.260;2024-03-02T00:44:17;2.50;99.90
45319;DHT22;31057;48.498;32.260;2024-03-02T00:46:21;2.40;99.90
45319;DHT22;31057;48.498;32.260;2024-03-02T00:48:23;2.40;99.90
45319;DHT22;31057;48.498;32.260;2024-03-02T00:50:25;2.40;99.90
45319;DHT22;31057;48.498;32.260;2024-03-02T00:52:32;2.40;99.90
45319;DHT22;31057;48.498;32.260;2024-03-02T00:54:34;2.50;99.90
45319;DHT22;31057;48.498;32.260;2024-03-02T00:56:36;2.40;99.90
45319;DHT22;31057;48.498;32.260;2024-03-02T00:58:39;2.40;99.90
45319;DHT22;31057;48.498;32.260;2024-03-02T01:00:41;2.40;99.90
45319;DHT22;31057;48.498;32.260;2024-03-02T01:02:43;2.40;99.90
45319;DHT22;31057;48.498;32.260;2024-03-02T01:04:47;2.40;99.90
45319;DHT22;31057;48.498;32.260;2024-03-02T01:06:49;2.40;99.90
45319;DHT22;31057;48.498;32.260;2024-03-02T01:08:51;2.40;99.90
45319;DHT22;31057;48.498;32.260;2024-03-02T01:10:54;2.40;99.90
45319;DHT22;31057;48.498;32.260;2024-03-02T01:12:56;2.40;99.90
45319;DHT22;31057;48.498;32.260;2024-03-02T01:14:58;2.40;99.90
45319;DHT22;31057;48.498;32.260;2024-03-02T01:17:00;2.50;99.90
45319;DHT22;31057;48.498;32.260;2024-03-02T01:19:05;2.40;99.90
45319;DHT22;31057;48.498;32.260;2024-03-02T01:21:07;2.40;99.90
45319;DHT22;31057;48.498;32.260;2024-03-02T01:23:09;2.40;99.90
45319;DHT22;31057;48.498;32.260;2024-03-02T01:25:11;2.50;99.90
45319;DHT22;31057;48.498;32.260;2024-03-02T01:27:13;2.40;99.90
45319;DHT22;31057;48.498;32.260;2024-03-02T01:29:15;2.50;99.90
45319;DHT22;31057;48.498;32.260;2024-03-02T01:31:17;2.50;99.90
45319;DHT22;31057;48.498;32.260;2024-03-02T01:33:19;2.50;99.90
45319;DHT22;31057;48.498;32.260;2024-03-02T01:35:21;2.40;99.90
45319;DHT22;31057;48.498;32.260;2024-03-02T01:37:23;2.40;99.90
45319;DHT22;31057;48.498;32.260;2024-03-02T01:39:25;2.40;99.90
45319;DHT22;31057;48.498;32.260;2024-03-02T01:41:27;2.40;99.90
45319;DHT22;31057;48.498;32.260;2024-03-02T01:43:29;2.40;99.90
45319;DHT22;31057;48.498;32.260;2024-03-02T01:45:31;2.30;99.90
45319;DHT22;31057;48.498;32.260;2024-03-02T01:47:34;2.30;99.90
45319;DHT22;31057;48.498;32.260;2024-03-02T01:49:36;2.30;99.90
45319;DHT22;31057;48.498;32.260;2024-03-02T01:51:41;2.30;99.90
45319;DHT22;31057;48.498;32.260;2024-03-02T01:53:43;2.30;99.90
45319;DHT22;31057;48.498;32.260;2024-03-02T01:55:44;2.20;99.90
45319;DHT22;31057;48.498;32.260;2024-03-02T01:57:47;2.20;99.90
45319;DHT22;31057;48.498;32.260;2024-03-02T01:59:49;2.10;99.90
45319;DHT22;31057;48.498;32.260;2024-03-02T02:01:52;2.10;99.90
45319;DHT22;31057;48.498;32.260;2024-03-02T02:03:54;2.00;99.90
45319;DHT22;31057;48.498;32.260;2024-03-02T02:05:57;1.90;99.90
45319;DHT22;31057;48.498;32.260;2024-03-02T02:07:59;1.90;99.90
45319;DHT22;31057;48.498;32.260;2024-03-02T02:10:01;1.90;99.90
45319;DHT22;31057;48.498;32.260;2024-03-02T02:12:04;2.00;99.90
45319;DHT22;31057;48.498;32.260;2024-03-02T02:14:08;1.90;99.90
45319;DHT22;31057;48.498;32.260;2024-03-02T02:16:10;1.80;99.90
45319;DHT22;31057;48.498;32.260;2024-03-02T02:18:12;1.80;99.90
45319;DHT22;31057;48.498;32.260;2024-03-02T02:20:14;1.70;99.90
45319;DHT22;31057;48.498;32.260;2024-03-02T02:22:16;1.80;99.90
45319;DHT22;31057;48.498;32.260;2024-03-02T02:24:18;1.70;99.90
45319;DHT22;31057;48.498;32.260;2024-03-02T02:26:20;1.70;99.90
45319;DHT22;31057;48.498;32.260;2024-03-02T02:28:22;1.70;99.90
45319;DHT22;31057;48.498;32.260;2024-03-02T02:30:27;1.70;99.90
45319;DHT22;31057;48.498;32.260;2024-03-02T02:32:29;1.70;99.90
45319;DHT22;31057;48.498;32.260;2024-03-02T02:34:31;1.60;99.90
45319;DHT22;31057;48.498;32.260;2024-03-02T02:36:34;1.70;99.90
45319;DHT22;31057;48.498;32.260;2024-03-02T02:38:42;1.70;99.90
45319;DHT22;31057;48.498;32.260;2024-03-02T02:40:45;1.70;99.90
45319;DHT22;31057;48.498;32.260;2024-03-02T02:42:47;1.70;99.90
45319;DHT22;31057;48.498;32.260;2024-03-02T02:44:49;1.70;99.90
45319;DHT22;31057;48.498;32.260;2024-03-02T02:46:51;1.70;99.90
45319;DHT22;31057;48.498;32.260;2024-03-02T02:48:53;1.70;99.90
45319;DHT22;31057;48.498;32.260;2024-03-02T02:50:55;1.70;99.90
45319;DHT22;31057;48.498;32.260;2024-03-02T02:52:58;1.80;99.90
45319;DHT22;31057;48.498;32.260;2024-03-02T02:55:00;1.80;99.90
45319;DHT22;31057;48.498;32.260;2024-03-02T02:57:02;1.70;99.90
45319;DHT22;31057;48.498;32.260;2024-03-02T02:59:05;1.70;99.90
45319;DHT22;31057;48.498;32.260;2024-03-02T03:01:07;1.70;99.90
45319;DHT22;31057;48.498;32.260;2024-03-02T03:03:09;1.80;99.90
45319;DHT22;31057;48.498;32.260;2024-03-02T03:05:13;1.80;99.90
45319;DHT22;31057;48.498;32.260;2024-03-02T03:07:16;1.80;99.90
45319;DHT22;31057;48.498;32.260;2024-03-02T03:09:18;1.80;99.90
45319;DHT22;31057;48.498;32.260;2024-03-02T03:11:20;1.70;99.90
45319;DHT22;31057;48.498;32.260;2024-03-02T03:13:22;1.70;99.90
45319;DHT22;31057;48.498;32.260;2024-03-02T03:15:24;1.80;99.90
45319;DHT22;31057;48.498;32.260;2024-03-02T03:17:27;1.70;99.90
45319;DHT22;31057;48.498;32.260;2024-03-02T03:19:29;1.70;99.90
45319;DHT22;31057;48.498;32.260;2024-03-02T03:21:31;1.70;99.90
45319;DHT22;31057;48.498;32.260;2024-03-02T03:23:33;1.70;99.90
45319;DHT22;31057;48.498;32.260;2024-03-02T03:25:35;1.70;99.90
45319;DHT22;31057;48.498;32.260;2024-03-02T03:27:37;1.70;99.90
45319;DHT22;31057;48.498;32.260;2024-03-02T03:29:39;1.60;99.90
45319;DHT22;31057;48.498;32.260;2024-03-02T03:31:41;1.50;99.90
45319;DHT22;31057;48.498;32.260;2024-03-02T03:33:43;1.50;99.90
45319;DHT22;31057;48.498;32.260;2024-03-02T03:35:45;1.50;99.90
45319;DHT22;31057;48.498;32.260;2024-03-02T03:37:48;1.60;99.90
45319;DHT22;31057;48.498;32.260;2024-03-02T03:39:49;1.70;99.90
45319;DHT22;31057;48.498;32.260;2024-03-02T03:41:52;1.70;99.90
45319;DHT22;31057;48.498;32.260;2024-03-02T03:43:53;1.60;99.90
45319;DHT22;31057;48.498;32.260;2024-03-02T03:45:56;1.60;99.90
45319;DHT22;31057;48.498;32.260;2024-03-02T03:47:58;1.50;99.90
45319;DHT22;31057;48.498;32.260;2024-03-02T03:50:00;1.50;99.90
45319;DHT22;31057;48.498;32.260;2024-03-02T03:52:02;1.40;99.90
45319;DHT22;31057;48.498;32.260;2024-03-02T03:54:05;1.50;99.90
45319;DHT22;31057;48.498;32.260;2024-03-02T03:56:08;1.50;99.90
45319;DHT22;31057;48.498;32.260;2024-03-02T03:58:10;1.40;99.90
45319;DHT22;31057;48.498;32.260;2024-03-02T04:00:12;1.50;99.90
45319;DHT22;31057;48.498;32.260;2024-03-02T04:02:14;1.40;99.90
45319;DHT22;31057;48.498;32.260;2024-03-02T04:04:16;1.40;99.90
45319;DHT22;31057;48.498;32.260;2024-03-02T04:06:18;1.30;99.90
45319;DHT22;31057;48.498;32.260;2024-03-02T04:08:20;1.30;99.90
45319;DHT22;31057;48.498;32.260;2024-03-02T04:10:22;1.30;99.90
45319;DHT22;31057;48.498;32.260;2024-03-02T04:12:25;1.30;99.90
45319;DHT22;31057;48.498;32.260;2024-03-02T04:14:27;1.20;99.90
45319;DHT22;31057;48.498;32.260;2024-03-02T04:16:29;1.30;99.90
45319;DHT22;31057;48.498;32.260;2024-03-02T04:18:31;1.30;99.90
45319;DHT22;31057;48.498;32.260;2024-03-02T04:20:36;1.30;99.90
45319;DHT22;31057;48.498;32.260;2024-03-02T04:22:38;1.30;99.90
45319;DHT22;31057;48.498;32.260;2024-03-02T04:24:40;1.30;99.90
45319;DHT22;31057;48.498;32.260;2024-03-02T04:26:42;1.30;99.90
45319;DHT22;31057;48.498;32.260;2024-03-02T04:28:44;1.30;99.90
45319;DHT22;31057;48.498;32.260;2024-03-02T04:30:46;1.30;99.90
45319;DHT22;31057;48.498;32.260;2024-03-02T04:32:48;1.20;99.90
45319;DHT22;31057;48.498;32.260;2024-03-02T04:34:50;1.20;99.90
45319;DHT22;31057;48.498;32.260;2024-03-02T04:36:52;1.30;99.90
45319;DHT22;31057;48.498;32.260;2024-03-02T04:38:54;1.20;99.90
45319;DHT22;31057;48.498;32.260;2024-03-02T04:40:56;1.20;99.90
45319;DHT22;31057;48.498;32.260;2024-03-02T04:42:58;1.30;99.90
45319;DHT22;31057;48.498;32.260;2024-03-02T04:45:04;1.20;99.90
45319;DHT22;31057;48.498;32.260;2024-03-02T04:47:07;1.20;99.90
45319;DHT22;31057;48.498;32.260;2024-03-02T04:49:08;1.10;99.90
45319;DHT22;31057;48.498;32.260;2024-03-02T04:51:10;1.10;99.90
45319;DHT22;31057;48.498;32.260;2024-03-02T04:53:12;1.10;99.90
45319;DHT22;31057;48.498;32.260;2024-03-02T04:55:15;1.10;99.90
45319;DHT22;31057;48.498;32.260;2024-03-02T04:57:17;1.10;99.90
45319;DHT22;31057;48.498;32.260;2024-03-02T04:59:19;1.10;99.90
45319;DHT22;31057;48.498;32.260;2024-03-02T05:01:21;1.10;99.90
45319;DHT22;31057;48.498;32.260;2024-03-02T05:03:23;1.10;99.90
45319;DHT22;31057;48.498;32.260;2024-03-02T05:05:26;1.10;99.90
45319;DHT22;31057;48.498;32.260;2024-03-02T05:07:28;1.10;99.90
45319;DHT22;31057;48.498;32.260;2024-03-02T05:09:29;1.10;99.90
45319;DHT22;31057;48.498;32.260;2024-03-02T05:11:32;1.20;99.90
45319;DHT22;31057;48.498;32.260;2024-03-02T05:13:54;1.20;99.90
45319;DHT22;31057;48.498;32.260;2024-03-02T05:15:56;1.20;99.90
45319;DHT22;31057;48.498;32.260;2024-03-02T05:17:58;1.20;99.90
45319;DHT22;31057;48.498;32.260;2024-03-02T05:20:06;1.30;99.90
45319;DHT22;31057;48.498;32.260;2024-03-02T05:22:09;1.20;99.90
45319;DHT22;31057;48.498;32.260;2024-03-02T05:24:11;1.20;99.90
45319;DHT22;31057;48.498;32.260;2024-03-02T05:26:13;1.30;99.90
45319;DHT22;31057;48.498;32.260;2024-03-02T05:28:15;1.40;99.90
45319;DHT22;31057;48.498;32.260;2024-03-02T05:30:17;1.50;99.90
45319;DHT22;31057;48.498;32.260;2024-03-02T05:32:20;1.50;99.90
45319;DHT22;31057;48.498;32.260;2024-03-02T05:34:21;1.50;99.90
45319;DHT22;31057;48.498;32.260;2024-03-02T05:36:24;1.60;99.90
45319;DHT22;31057;48.498;32.260;2024-03-02T05:38:26;1.60;99.90
45319;DHT22;31057;48.498;32.260;2024-03-02T05:40:28;1.60;99.90
45319;DHT22;31057;48.498;32.260;2024-03-02T05:42:30;1.60;99.90
45319;DHT22;31057;48.498;32.260;2024-03-02T05:44:32;1.70;99.90
45319;DHT22;31057;48.498;32.260;2024-03-02T05:46:34;1.80;99.90
45319;DHT22;31057;48.498;32.260;2024-03-02T05:48:38;1.90;99.90
45319;DHT22;31057;48.498;32.260;2024-03-02T05:50:40;1.90;99.90
45319;DHT22;31057;48.498;32.260;2024-03-02T05:52:42;2.00;99.90
45319;DHT22;31057;48.498;32.260;2024-03-02T05:54:44;2.00;99.90
45319;DHT22;31057;48.498;32.260;2024-03-02T05:56:46;2.00;99.90
45319;DHT22;31057;48.498;32.260;2024-03-02T05:58:48;2.10;99.90
45319;DHT22;31057;48.498;32.260;2024-03-02T06:01:08;2.10;99.90
45319;DHT22;31057;48.498;32.260;2024-03-02T06:03:10;2.20;99.90
45319;DHT22;31057;48.498;32.260;2024-03-02T06:05:12;2.20;99.90
45319;DHT22;31057;48.498;32.260;2024-03-02T06:07:14;2.20;99.90
45319;DHT22;31057;48.498;32.260;2024-03-02T06:09:17;2.30;99.90
45319;DHT22;31057;48.498;32.260;2024-03-02T06:11:20;2.40;99.90
45319;DHT22;31057;48.498;32.260;2024-03-02T06:13:22;2.40;99.90
45319;DHT22;31057;48.498;32.260;2024-03-02T06:15:25;2.50;99.90
45319;DHT22;31057;48.498;32.260;2024-03-02T06:17:27;2.40;99.90
45319;DHT22;31057;48.498;32.260;2024-03-02T06:19:29;2.50;99.90
45319;DHT22;31057;48.498;32.260;2024-03-02T06:21:31;2.60;99.90
45319;DHT22;31057;48.498;32.260;2024-03-02T06:23:32;2.80;99.90
45319;DHT22;31057;48.498;32.260;2024-03-02T06:25:34;2.90;99.90
45319;DHT22;31057;48.498;32.260;2024-03-02T06:27:36;3.00;99.90
45319;DHT22;31057;48.498;32.260;2024-03-02T06:29:38;3.20;99.90
45319;DHT22;31057;48.498;32.260;2024-03-02T06:31:40;3.30;99.90
45319;DHT22;31057;48.498;32.260;2024-03-02T06:33:42;3.20;99.90
45319;DHT22;31057;48.498;32.260;2024-03-02T06:35:44;3.30;99.90
45319;DHT22;31057;48.498;32.260;2024-03-02T06:37:46;3.30;99.90
45319;DHT22;31057;48.498;32.260;2024-03-02T06:39:48;3.30;99.90
45319;DHT22;31057;48.498;32.260;2024-03-02T06:41:50;3.30;99.90
45319;DHT22;31057;48.498;32.260;2024-03-02T06:43:52;3.30;99.90
45319;DHT22;31057;48.498;32.260;2024-03-02T06:46:01;3.30;99.90
45319;DHT22;31057;48.498;32.260;2024-03-02T06:48:04;3.30;99.90
45319;DHT22;31057;48.498;32.260;2024-03-02T06:50:07;3.30;99.90
45319;DHT22;31057;48.498;32.260;2024-03-02T06:52:09;3.50;99.90
45319;DHT22;31057;48.498;32.260;2024-03-02T06:54:11;3.60;99.90
45319;DHT22;31057;48.498;32.260;2024-03-02T06:56:13;3.60;99.90
45319;DHT22;31057;48.498;32.260;2024-03-02T06:58:15;3.70;99.90
45319;DHT22;31057;48.498;32.260;2024-03-02T07:00:18;3.90;99.90
45319;DHT22;31057;48.498;32.260;2024-03-02T07:02:22;4.00;99.90
45319;DHT22;31057;48.498;32.260;2024-03-02T07:04:24;3.80;99.90
45319;DHT22;31057;48.498;32.260;2024-03-02T07:06:26;3.70;99.90
45319;DHT22;31057;48.498;32.260;2024-03-02T07:08:28;3.70;99.90
45319;DHT22;31057;48.498;32.260;2024-03-02T07:10:30;3.80;99.90
45319;DHT22;31057;48.498;32.260;2024-03-02T07:12:32;3.90;99.90
45319;DHT22;31057;48.498;32.260;2024-03-02T07:14:35;4.20;99.90
45319;DHT22;31057;48.498;32.260;2024-03-02T07:17:12;4.10;99.90
45319;DHT22;31057;48.498;32.260;2024-03-02T07:19:14;4.20;99.90
45319;DHT22;31057;48.498;32.260;2024-03-02T07:21:17;4.40;99.90
45319;DHT22;31057;48.498;32.260;2024-03-02T07:23:19;4.30;99.90
45319;DHT22;31057;48.498;32.260;2024-03-02T07:25:22;4.30;99.90
45319;DHT22;31057;48.498;32.260;2024-03-02T07:27:27;4.40;99.90
45319;DHT22;31057;48.498;32.260;2024-03-02T07:29:29;4.40;99.90
45319;DHT22;31057;48.498;32.260;2024-03-02T07:31:31;4.50;99.90
45319;DHT22;31057;48.498;32.260;2024-03-02T07:33:33;4.50;99.90
45319;DHT22;31057;48.498;32.260;2024-03-02T07:35:35;4.60;99.90
45319;DHT22;31057;48.498;32.260;2024-03-02T07:37:37;4.70;99.90
45319;DHT22;31057;48.498;32.260;2024-03-02T07:39:39;4.90;99.90
45319;DHT22;31057;48.498;32.260;2024-03-02T07:41:41;5.00;99.90
45319;DHT22;31057;48.498;32.260;2024-03-02T07:43:44;5.10;99.90
45319;DHT22;31057;48.498;32.260;2024-03-02T07:45:46;5.10;99.90
45319;DHT22;31057;48.498;32.260;2024-03-02T07:47:48;4.90;99.90
45319;DHT22;31057;48.498;32.260;2024-03-02T07:49:51;4.90;99.90
45319;DHT22;31057;48.498;32.260;2024-03-02T07:51:53;5.00;99.90
45319;DHT22;31057;48.498;32.260;2024-03-02T07:53:55;5.20;99.90
45319;DHT22;31057;48.498;32.260;2024-03-02T07:55:57;5.10;99.90
45319;DHT22;31057;48.498;32.260;2024-03-02T07:58:04;5.20;99.90
45319;DHT22;31057;48.498;32.260;2024-03-02T08:00:06;5.30;99.90
45319;DHT22;31057;48.498;32.260;2024-03-02T08:02:08;5.40;99.90
45319;DHT22;31057;48.498;32.260;2024-03-02T08:04:11;5.50;99.90
45319;DHT22;31057;48.498;32.260;2024-03-02T08:06:12;5.70;99.90
45319;DHT22;31057;48.498;32.260;2024-03-02T08:08:16;5.70;99.90
45319;DHT22;31057;48.498;32.260;2024-03-02T08:10:18;5.80;99.90
45319;DHT22;31057;48.498;32.260;2024-03-02T08:12:20;5.70;99.90
45319;DHT22;31057;48.498;32.260;2024-03-02T08:14:25;5.80;99.90
45319;DHT22;31057;48.498;32.260;2024-03-02T08:16:28;6.00;99.90
45319;DHT22;31057;48.498;32.260;2024-03-02T08:18:30;5.80;99.90
45319;DHT22;31057;48.498;32.260;2024-03-02T08:20:32;5.90;99.90
45319;DHT22;31057;48.498;32.260;2024-03-02T08:22:34;5.80;99.90
45319;DHT22;31057;48.498;32.260;2024-03-02T08:24:37;5.90;99.90
45319;DHT22;31057;48.498;32.260;2024-03-02T08:26:39;6.10;99.90
45319;DHT22;31057;48.498;32.260;2024-03-02T08:28:41;6.00;99.90
45319;DHT22;31057;48.498;32.260;2024-03-02T08:30:43;5.90;99.90
45319;DHT22;31057;48.498;32.260;2024-03-02T08:32:45;5.70;99.90
45319;DHT22;31057;48.498;32.260;2024-03-02T08:34:49;5.90;99.90
45319;DHT22;31057;48.498;32.260;2024-03-02T08:36:51;6.00;99.90
45319;DHT22;31057;48.498;32.260;2024-03-02T08:38:53;6.10;99.90
45319;DHT22;31057;48.498;32.260;2024-03-02T08:40:55;6.00;99.90
45319;DHT22;31057;48.498;32.260;2024-03-02T08:42:57;6.20;99.90
45319;DHT22;31057;48.498;32.260;2024-03-02T08:44:59;5.90;99.90
45319;DHT22;31057;48.498;32.260;2024-03-02T08:47:03;5.90;99.90
45319;DHT22;31057;48.498;32.260;2024-03-02T08:49:05;6.00;99.90
45319;DHT22;31057;48.498;32.260;2024-03-02T08:51:07;6.30;99.90
45319;DHT22;31057;48.498;32.260;2024-03-02T08:53:12;6.20;99.90
45319;DHT22;31057;48.498;32.260;2024-03-02T08:55:14;6.50;99.90
45319;DHT22;31057;48.498;32.260;2024-03-02T08:57:16;6.50;99.90
45319;DHT22;31057;48.498;32.260;2024-03-02T08:59:18;6.60;99.90
45319;DHT22;31057;48.498;32.260;2024-03-02T09:01:20;6.40;99.90
45319;DHT22;31057;48.498;32.260;2024-03-02T09:03:22;6.50;99.90
45319;DHT22;31057;48.498;32.260;2024-03-02T09:05:24;6.30;99.90
45319;DHT22;31057;48.498;32.260;2024-03-02T09:07:26;6.30;99.90
45319;DHT22;31057;48.498;32.260;2024-03-02T09:09:28;6.40;99.90
45319;DHT22;31057;48.498;32.260;2024-03-02T09:11:30;6.60;99.90
45319;DHT22;31057;48.498;32.260;2024-03-02T09:13:33;6.60;99.90
45319;DHT22;31057;48.498;32.260;2024-03-02T09:15:35;6.60;99.90
45319;DHT22;31057;48.498;32.260;2024-03-02T09:17:39;6.70;99.90
45319;DHT22;31057;48.498;32.260;2024-03-02T09:19:42;6.70;99.90
45319;DHT22;31057;48.498;32.260;2024-03-02T09:21:44;6.70;99.90
45319;DHT22;31057;48.498;32.260;2024-03-02T09:23:46;6.90;99.90
45319;DHT22;31057;48.498;32.260;2024-03-02T09:25:50;6.80;99.90
45319;DHT22;31057;48.498;32.260;2024-03-02T09:27:52;7.00;99.90
45319;DHT22;31057;48.498;32.260;2024-03-02T09:29:53;6.90;99.90
45319;DHT22;31057;48.498;32.260;2024-03-02T09:31:55;7.30;99.90
45319;DHT22;31057;48.498;32.260;2024-03-02T09:33:57;7.50;99.90
45319;DHT22;31057;48.498;32.260;2024-03-02T09:35:59;7.50;99.90
45319;DHT22;31057;48.498;32.260;2024-03-02T09:38:02;7.10;99.90
45319;DHT22;31057;48.498;32.260;2024-03-02T09:40:05;7.50;99.90
45319;DHT22;31057;48.498;32.260;2024-03-02T09:42:08;7.50;99.90
45319;DHT22;31057;48.498;32.260;2024-03-02T09:44:10;7.50;99.90
45319;DHT22;31057;48.498;32.260;2024-03-02T09:46:12;7.50;99.90
45319;DHT22;31057;48.498;32.260;2024-03-02T09:48:14;7.60;99.90
45319;DHT22;31057;48.498;32.260;2024-03-02T09:50:20;7.50;99.90
45319;DHT22;31057;48.498;32.260;2024-03-02T09:52:25;7.90;99.90
45319;DHT22;31057;48.498;32.260;2024-03-02T09:54:27;8.00;99.90
45319;DHT22;31057;48.498;32.260;2024-03-02T09:56:30;8.10;99.90
45319;DHT22;31057;48.498;32.260;2024-03-02T09:58:32;7.90;99.90
45319;DHT22;31057;48.498;32.260;2024-03-02T10:00:34;8.10;99.90
45319;DHT22;31057;48.498;32.260;2024-03-02T10:02:36;8.10;99.90
45319;DHT22;31057;48.498;32.260;2024-03-02T10:04:38;8.10;99.90
45319;DHT22;31057;48.498;32.260;2024-03-02T10:06:40;8.10;99.90
45319;DHT22;31057;48.498;32.260;2024-03-02T10:08:45;7.80;99.90
45319;DHT22;31057;48.498;32.260;2024-03-02T10:10:47;7.80;99.90
45319;DHT22;31057;48.498;32.260;2024-03-02T10:12:51;8.10;99.90
45319;DHT22;31057;48.498;32.260;2024-03-02T10:15:05;8.20;99.90
45319;DHT22;31057;48.498;32.260;2024-03-02T10:17:12;8.40;99.90
45319;DHT22;31057;48.498;32.260;2024-03-02T10:19:19;8.40;99.90
45319;DHT22;31057;48.498;32.260;2024-03-02T10:21:21;8.20;99.90
45319;DHT22;31057;48.498;32.260;2024-03-02T10:23:26;8.30;99.90
45319;DHT22;31057;48.498;32.260;2024-03-02T10:25:32;8.10;99.90
45319;DHT22;31057;48.498;32.260;2024-03-02T10:27:51;8.20;99.90
45319;DHT22;31057;48.498;32.260;2024-03-02T10:29:53;8.30;99.90
45319;DHT22;31057;48.498;32.260;2024-03-02T10:31:55;8.10;99.90
45319;DHT22;31057;48.498;32.260;2024-03-02T10:33:57;8.10;99.90
45319;DHT22;31057;48.498;32.260;2024-03-02T10:35:59;8.10;99.90
45319;DHT22;31057;48.498;32.260;2024-03-02T10:38:04;8.10;99.90
45319;DHT22;31057;48.498;32.260;2024-03-02T10:40:09;8.20;99.90
45319;DHT22;31057;48.498;32.260;2024-03-02T10:42:12;8.30;99.90
45319;DHT22;31057;48.498;32.260;2024-03-02T10:44:16;8.30;99.90
45319;DHT22;31057;48.498;32.260;2024-03-02T10:46:22;8.40;99.90
45319;DHT22;31057;48.498;32.260;2024-03-02T10:48:27;8.50;99.90
45319;DHT22;31057;48.498;32.260;2024-03-02T10:50:30;8.70;99.90
45319;DHT22;31057;48.498;32.260;2024-03-02T10:52:32;8.40;99.90
45319;DHT22;31057;48.498;32.260;2024-03-02T10:54:34;8.00;99.90
45319;DHT22;31057;48.498;32.260;2024-03-02T10:56:44;8.30;99.90
45319;DHT22;31057;48.498;32.260;2024-03-02T10:58:47;8.20;99.90
45319;DHT22;31057;48.498;32.260;2024-03-02T11:00:52;8.30;99.90
45319;DHT22;31057;48.498;32.260;2024-03-02T11:02:57;8.70;99.90
45319;DHT22;31057;48.498;32.260;2024-03-02T11:05:00;8.70;99.90
45319;DHT22;31057;48.498;32.260;2024-03-02T11:07:06;8.20;99.90
45319;DHT22;31057;48.498;32.260;2024-03-02T11:09:09;8.20;99.90
45319;DHT22;31057;48.498;32.260;2024-03-02T11:11:15;8.10;99.90
45319;DHT22;31057;48.498;32.260;2024-03-02T11:13:24;8.30;99.90
45319;DHT22;31057;48.498;32.260;2024-03-02T11:15:29;8.00;99.90
45319;DHT22;31057;48.498;32.260;2024-03-02T11:17:32;7.80;99.90
45319;DHT22;31057;48.498;32.260;2024-03-02T11:19:34;8.30;99.90
45319;DHT22;31057;48.498;32.260;2024-03-02T11:21:37;8.30;99.90
45319;DHT22;31057;48.498;32.260;2024-03-02T11:23:40;8.10;99.90
45319;DHT22;31057;48.498;32.260;2024-03-02T11:25:42;7.80;99.90
45319;DHT22;31057;48.498;32.260;2024-03-02T11:29:50;8.10;99.90
45319;DHT22;31057;48.498;32.260;2024-03-02T11:31:59;8.20;99.90
45319;DHT22;31057;48.498;32.260;2024-03-02T11:34:29;8.30;99.90
45319;DHT22;31057;48.498;32.260;2024-03-02T11:36:32;8.30;99.90
45319;DHT22;31057;48.498;32.260;2024-03-02T11:38:34;8.40;99.90
45319;DHT22;31057;48.498;32.260;2024-03-02T11:40:39;8.30;99.90
45319;DHT22;31057;48.498;32.260;2024-03-02T11:42:41;8.20;99.90
45319;DHT22;31057;48.498;32.260;2024-03-02T11:44:48;7.70;99.90
45319;DHT22;31057;48.498;32.260;2024-03-02T11:47:00;8.00;99.90
45319;DHT22;31057;48.498;32.260;2024-03-02T11:49:03;7.90;99.90
45319;DHT22;31057;48.498;32.260;2024-03-02T11:51:06;8.20;99.90
45319;DHT22;31057;48.498;32.260;2024-03-02T11:53:09;8.10;99.90
45319;DHT22;31057;48.498;32.260;2024-03-02T11:55:16;7.70;99.90
45319;DHT22;31057;48.498;32.260;2024-03-02T11:57:20;7.90;99.90
45319;DHT22;31057;48.498;32.260;2024-03-02T11:59:26;7.60;99.90
45319;DHT22;31057;48.498;32.260;2024-03-02T12:01:29;7.70;99.90
45319;DHT22;31057;48.498;32.260;2024-03-02T12:03:32;7.80;99.90
45319;DHT22;31057;48.498;32.260;2024-03-02T12:05:37;7.90;99.90
45319;DHT22;31057;48.498;32.260;2024-03-02T12:07:39;8.00;99.90
45319;DHT22;31057;48.498;32.260;2024-03-02T12:09:41;7.90;99.90
45319;DHT22;31057;48.498;32.260;2024-03-02T12:11:43;7.90;99.90
45319;DHT22;31057;48.498;32.260;2024-03-02T12:13:52;8.20;99.90
45319;DHT22;31057;48.498;32.260;2024-03-02T12:15:56;7.90;99.90
45319;DHT22;31057;48.498;32.260;2024-03-02T12:18:01;7.80;99.90
45319;DHT22;31057;48.498;32.260;2024-03-02T12:20:05;7.90;99.90
45319;DHT22;31057;48.498;32.260;2024-03-02T12:22:07;7.70;99.90
45319;DHT22;31057;48.498;32.260;2024-03-02T12:24:09;7.90;99.90
45319;DHT22;31057;48.498;32.260;2024-03-02T12:26:11;8.00;99.90
45319;DHT22;31057;48.498;32.260;2024-03-02T12:28:13;7.80;99.90
45319;DHT22;31057;48.498;32.260;2024-03-02T12:30:17;7.60;99.90
45319;DHT22;31057;48.498;32.260;2024-03-02T12:32:19;7.60;99.90
45319;DHT22;31057;48.498;32.260;2024-03-02T12:34:22;7.70;99.90
45319;DHT22;31057;48.498;32.260;2024-03-02T12:36:25;7.70;99.90
45319;DHT22;31057;48.498;32.260;2024-03-02T12:38:28;7.50;99.90
45319;DHT22;31057;48.498;32.260;2024-03-02T12:40:31;7.40;99.90
45319;DHT22;31057;48.498;32.260;2024-03-02T12:42:33;7.60;99.90
45319;DHT22;31057;48.498;32.260;2024-03-02T12:44:35;7.60;99.90
45319;DHT22;31057;48.498;32.260;2024-03-02T12:46:37;7.50;99.90
45319;DHT22;31057;48.498;32.260;2024-03-02T12:48:39;7.50;99.90
45319;DHT22;31057;48.498;32.260;2024-03-02T12:50:43;7.20;99.90
45319;DHT22;31057;48.498;32.260;2024-03-02T12:52:53;7.20;99.90
45319;DHT22;31057;48.498;32.260;2024-03-02T12:54:56;7.30;99.90
45319;DHT22;31057;48.498;32.260;2024-03-02T12:57:02;7.40;99.90
45319;DHT22;31057;48.498;32.260;2024-03-02T12:59:05;7.40;99.90
45319;DHT22;31057;48.498;32.260;2024-03-02T13:01:09;7.20;99.90